Time;durP1;ratioP1;P1;durP2;ratioP2;P2;SDS_P1;SDS_P2;PMS_P1;PMS_P2;Temp;Humidity;BMP_temperature;BMP_pressure;BME280_temperature;BME280_humidity;BME280_pressure;Samples;Min_cycle;Max_cycle;Signal;HPM_P1;HPM_P2
2022/06/21 00:00:35;;;;;;;0.50;0.50;;;;;;;19.17;100.00;100433.88;2616527;46;20663;-63
2022/06/21 00:03:08;;;;;;;1.08;0.57;;;;;;;19.33;100.00;100432.34;2616511;54;20145;-62
2022/06/21 00:05:41;;;;;;;0.93;0.88;;;;;;;19.28;100.00;100437.22;2616659;54;20148;-63
2022/06/21 00:08:17;;;;;;;0.85;0.73;;;;;;;19.10;100.00;100429.38;2616472;47;20137;-62
2022/06/21 00:10:51;;;;;;;0.30;0.30;;;;;;;19.06;100.00;100434.13;2617096;39;20529;-63
2022/06/21 00:13:24;;;;;;;1.00;0.93;;;;;;;19.08;100.00;100426.09;2616340;54;20145;-62
2022/06/21 00:15:58;;;;;;;0.55;0.55;;;;;;;19.16;100.00;100424.34;2616701;39;20637;-63
2022/06/21 00:18:31;;;;;;;0.85;0.85;;;;;;;19.44;100.00;100426.84;2616473;54;20141;-63
2022/06/21 00:21:02;;;;;;;0.20;0.20;;;;;;;19.75;100.00;100420.09;2617939;54;20168;-63
2022/06/21 00:23:35;;;;;;;0.55;0.55;;;;;;;19.51;100.00;100418.16;2616518;54;20659;-63
2022/06/21 00:26:07;;;;;;;3.60;0.90;;;;;;;19.54;100.00;100424.91;2616287;47;20229;-63
2022/06/21 00:28:38;;;;;;;0.30;0.30;;;;;;;19.75;100.00;100417.47;2616390;54;20141;-64
2022/06/21 00:31:16;;;;;;;0.00;0.00;;;;;;;19.96;100.00;100415.25;2616246;52;20142;-63
2022/06/21 00:33:48;;;;;;;0.47;0.47;;;;;;;20.47;100.00;100408.13;2616051;54;20217;-63
2022/06/21 00:36:24;;;;;;;0.03;0.03;;;;;;;20.55;100.00;100381.78;2616545;54;20146;-63
2022/06/21 00:38:54;;;;;;;0.50;0.50;;;;;;;20.97;100.00;100402.72;2616226;54;20145;-62
2022/06/21 00:41:37;;;;;;;0.05;0.05;;;;;;;20.83;100.00;100387.56;2616219;54;20723;-63
2022/06/21 00:44:11;;;;;;;0.15;0.15;;;;;;;20.73;100.00;100392.19;2616441;54;20172;-63
2022/06/21 00:46:45;;;;;;;0.30;0.30;;;;;;;20.63;100.00;100387.06;2616430;54;20142;-62
2022/06/21 00:49:21;;;;;;;0.00;0.00;;;;;;;20.71;100.00;100389.72;2616943;54;20170;-63
2022/06/21 00:51:57;;;;;;;0.10;0.10;;;;;;;21.03;100.00;100389.69;2616477;54;20682;-63
2022/06/21 00:54:37;;;;;;;0.25;0.25;;;;;;;21.40;100.00;100406.81;2616813;54;20157;-63
2022/06/21 00:57:26;;;;;;;0.03;0.03;;;;;;;21.31;100.00;100400.72;2616964;54;20152;-63
2022/06/21 01:00:00;;;;;;;1.17;1.10;;;;;;;21.28;100.00;100392.31;2616863;54;20141;-62
2022/06/21 01:02:35;;;;;;;1.65;1.27;;;;;;;20.59;100.00;100391.03;2617126;54;20145;-63
2022/06/21 01:05:07;;;;;;;1.23;1.13;;;;;;;20.36;100.00;100397.91;2616951;54;20149;-62
2022/06/21 01:07:37;;;;;;;1.30;0.73;;;;;;;20.67;100.00;100398.09;2617134;54;20679;-63
2022/06/21 01:10:11;;;;;;;0.60;0.43;;;;;;;21.26;100.00;100389.03;2616649;50;20138;-63
2022/06/21 01:12:49;;;;;;;0.20;0.20;;;;;;;20.95;100.00;100389.69;2616914;49;20148;-63
2022/06/21 01:15:24;;;;;;;0.40;0.40;;;;;;;20.80;100.00;100387.91;2616922;54;20153;-63
2022/06/21 01:18:00;;;;;;;1.15;1.15;;;;;;;20.44;100.00;100398.75;2617042;54;20141;-62
2022/06/21 01:20:37;;;;;;;0.57;0.57;;;;;;;20.31;100.00;100393.13;2616886;50;20157;-63
2022/06/21 01:23:17;;;;;;;0.22;0.20;;;;;;;20.92;100.00;100386.56;2616923;54;20142;-63
2022/06/21 01:25:55;;;;;;;2.33;1.13;;;;;;;20.89;100.00;100386.91;2618454;54;20145;-63
2022/06/21 01:28:28;;;;;;;4.78;1.80;;;;;;;21.13;100.00;100384.28;2616941;54;20166;-63
2022/06/21 01:30:59;;;;;;;1.30;1.15;;;;;;;20.26;100.00;100394.59;2617134;47;20141;-62
2022/06/21 01:33:34;;;;;;;0.32;0.32;;;;;;;19.85;100.00;100399.75;2617052;54;20142;-63
2022/06/21 01:36:08;;;;;;;0.63;0.63;;;;;;;19.64;100.00;100401.94;2616859;54;20145;-62
2022/06/21 01:38:43;;;;;;;1.27;1.27;;;;;;;20.26;100.00;100394.59;2616861;54;20171;-62
2022/06/21 01:41:18;;;;;;;0.17;0.17;;;;;;;20.78;100.00;100398.59;2616812;54;20204;-63
2022/06/21 01:43:56;;;;;;;0.32;0.20;;;;;;;21.07;100.00;100394.63;2616999;54;20215;-63
2022/06/21 01:46:31;;;;;;;0.40;0.40;;;;;;;21.21;100.00;100405.38;2617119;39;20542;-62
2022/06/21 01:49:08;;;;;;;0.00;0.00;;;;;;;21.32;100.00;100398.91;2616531;54;20147;-63
2022/06/21 01:51:44;;;;;;;0.20;0.20;;;;;;;21.45;100.00;100396.56;2616870;54;20153;-63
2022/06/21 01:54:18;;;;;;;0.38;0.35;;;;;;;22.28;100.00;100392.41;2616755;50;20142;-63
2022/06/21 01:56:51;;;;;;;0.00;0.00;;;;;;;22.60;100.00;100391.34;2617047;54;20142;-63
2022/06/21 01:59:29;;;;;;;0.00;0.00;;;;;;;22.50;100.00;100392.59;2617046;39;20406;-63
2022/06/21 02:02:03;;;;;;;0.00;0.00;;;;;;;23.00;100.00;100386.72;2616994;54;20145;-63
2022/06/21 02:04:37;;;;;;;0.00;0.00;;;;;;;23.12;100.00;100395.88;2616504;54;20149;-63
2022/06/21 02:07:10;;;;;;;0.10;0.10;;;;;;;23.55;100.00;100402.25;2616988;54;20145;-63
2022/06/21 02:09:47;;;;;;;0.52;0.52;;;;;;;23.48;100.00;100404.81;2616565;54;20141;-63
2022/06/21 02:12:17;;;;;;;0.00;0.00;;;;;;;23.19;100.00;100412.72;2616980;54;20683;-63
2022/06/21 02:14:54;;;;;;;0.28;0.28;;;;;;;23.09;100.00;100406.84;2616725;54;20148;-63
2022/06/21 02:17:27;;;;;;;0.10;0.10;;;;;;;23.04;100.00;100398.59;2616789;54;20705;-63
2022/06/21 02:20:04;;;;;;;0.00;0.00;;;;;;;23.20;100.00;100399.28;2618578;39;20559;-63
2022/06/21 02:22:35;;;;;;;0.00;0.00;;;;;;;23.23;100.00;100403.41;2616661;54;20145;-62
2022/06/21 02:25:08;;;;;;;0.00;0.00;;;;;;;23.31;100.00;100400.66;2616581;47;20148;-63
2022/06/21 02:27:38;;;;;;;0.80;0.63;;;;;;;23.44;100.00;100386.81;2619135;54;20142;-63
2022/06/21 02:30:18;;;;;;;0.00;0.00;;;;;;;23.28;100.00;100380.66;2617662;54;20146;-63
2022/06/21 02:32:49;;;;;;;1.48;0.30;;;;;;;23.38;100.00;100379.56;2616370;54;20145;-63
2022/06/21 02:35:27;;;;;;;0.20;0.20;;;;;;;23.28;100.00;100393.06;2616610;54;20146;-63
2022/06/21 02:38:00;;;;;;;1.60;1.50;;;;;;;22.79;100.00;100390.88;2616614;54;20150;-63
2022/06/21 02:40:34;;;;;;;0.25;0.25;;;;;;;22.72;100.00;100395.25;2616507;54;20201;-62
2022/06/21 02:43:09;;;;;;;0.00;0.00;;;;;;;23.12;100.00;100404.66;2616753;54;20149;-63
2022/06/21 02:45:49;;;;;;;0.32;0.32;;;;;;;23.43;100.00;100409.00;2616627;54;20169;-62
2022/06/21 02:48:27;;;;;;;0.30;0.30;;;;;;;23.70;100.00;100398.59;2616772;54;20153;-62
2022/06/21 02:51:02;;;;;;;0.10;0.10;;;;;;;23.75;100.00;100393.53;2616520;47;20157;-63
2022/06/21 02:53:38;;;;;;;0.00;0.00;;;;;;;23.78;100.00;100390.53;2616590;54;20172;-62
2022/06/21 02:56:14;;;;;;;0.00;0.00;;;;;;;23.90;100.00;100395.38;2618970;54;20662;-68
2022/06/21 02:58:47;;;;;;;0.43;0.43;;;;;;;23.06;100.00;100397.44;2616656;53;20783;-63
2022/06/21 03:01:23;;;;;;;1.00;1.00;;;;;;;22.46;100.00;100394.78;2616484;39;20442;-63
2022/06/21 03:03:54;;;;;;;0.85;0.52;;;;;;;22.16;100.00;100390.34;2616431;54;20142;-63
2022/06/21 03:06:25;;;;;;;0.05;0.05;;;;;;;21.99;100.00;100394.09;2616902;39;20566;-63
2022/06/21 03:09:01;;;;;;;0.20;0.20;;;;;;;22.17;100.00;100389.34;2616676;47;20141;-63
2022/06/21 03:11:37;;;;;;;0.15;0.15;;;;;;;21.82;100.00;100380.91;2616940;39;20625;-63
2022/06/21 03:14:11;;;;;;;0.95;0.95;;;;;;;21.20;100.00;100395.78;2616836;54;20149;-63
2022/06/21 03:16:45;;;;;;;0.30;0.30;;;;;;;20.55;100.00;100400.25;2616500;54;20148;-63
2022/06/21 03:19:23;;;;;;;0.57;0.57;;;;;;;21.06;100.00;100393.00;2616497;54;20141;-64
2022/06/21 03:21:54;;;;;;;1.90;1.77;;;;;;;20.70;100.00;100398.63;2616503;54;20386;-64
2022/06/21 03:24:27;;;;;;;5.93;2.33;;;;;;;20.02;100.00;100388.25;2616602;54;20149;-64
2022/06/21 03:27:06;;;;;;;1.65;1.50;;;;;;;20.05;100.00;100393.22;2616301;54;20167;-63
2022/06/21 03:29:36;;;;;;;0.40;0.40;;;;;;;19.91;100.00;100383.28;2616817;54;20268;-63
2022/06/21 03:32:11;;;;;;;2.42;2.33;;;;;;;19.73;100.00;100384.38;2616308;54;20141;-63
2022/06/21 03:34:50;;;;;;;0.82;0.82;;;;;;;18.87;100.00;100384.34;2616633;54;20298;-63
2022/06/21 03:37:21;;;;;;;2.70;1.45;;;;;;;18.36;100.00;100379.78;2616327;54;20142;-64
2022/06/21 03:42:38;;;;;;;0.82;0.77;;;;;;;18.52;100.00;100384.38;2616439;54;20141;-63
2022/06/21 03:45:20;;;;;;;1.75;1.65;;;;;;;18.90;100.00;100376.16;2616375;47;20141;-63
2022/06/21 03:47:58;;;;;;;1.20;1.02;;;;;;;18.89;100.00;100378.94;2616620;54;20148;-63
2022/06/21 03:50:34;;;;;;;0.20;0.20;;;;;;;19.31;100.00;100371.16;2616218;54;20141;-63
2022/06/21 03:53:11;;;;;;;3.03;1.17;;;;;;;19.52;100.00;100374.25;2616635;54;20170;-63
2022/06/21 03:55:50;;;;;;;0.88;0.88;;;;;;;19.47;100.00;100369.47;2616428;54;20147;-62
2022/06/21 03:58:46;;;;;;;0.52;0.52;;;;;;;19.31;100.00;100363.25;2616406;54;20176;-63
2022/06/21 04:01:24;;;;;;;2.15;1.98;;;;;;;18.91;100.00;100353.31;2616376;54;20148;-63
2022/06/21 04:04:01;;;;;;;0.90;0.90;;;;;;;18.68;100.00;100363.50;2616284;54;20149;-63
2022/06/21 04:06:39;;;;;;;1.08;1.08;;;;;;;18.88;100.00;100364.97;2616205;54;20141;-64
2022/06/21 04:09:16;;;;;;;0.88;0.88;;;;;;;19.03;100.00;100368.69;2616322;47;20147;-64
2022/06/21 04:11:53;;;;;;;1.40;1.10;;;;;;;19.10;100.00;100374.13;2616373;54;20161;-64
2022/06/21 04:14:31;;;;;;;0.52;0.52;;;;;;;19.41;100.00;100371.88;2616383;54;20141;-64
2022/06/21 04:17:06;;;;;;;0.80;0.80;;;;;;;19.99;100.00;100364.06;2616309;54;20141;-64
2022/06/21 04:19:43;;;;;;;0.98;0.98;;;;;;;19.70;100.00;100369.72;2616304;54;20598;-64
2022/06/21 04:22:21;;;;;;;1.10;1.10;;;;;;;20.04;100.00;100369.66;2616359;47;20141;-64
2022/06/21 04:24:58;;;;;;;0.03;0.03;;;;;;;21.53;100.00;100369.31;2616318;54;20999;-62
2022/06/21 04:27:33;;;;;;;0.85;0.85;;;;;;;22.07;100.00;100367.59;2618274;54;20134;-62
2022/06/21 04:30:07;;;;;;;0.32;0.32;;;;;;;22.45;100.00;100355.28;2617602;54;20894;-63
2022/06/21 04:32:43;;;;;;;3.10;1.85;;;;;;;22.10;100.00;100346.13;2617031;54;20141;-62
2022/06/21 04:35:20;;;;;;;4.65;2.20;;;;;;;20.69;100.00;100357.44;2616388;54;20404;-62
2022/06/21 04:38:00;;;;;;;2.70;1.75;;;;;;;20.53;100.00;100360.06;2616400;54;20149;-63
2022/06/21 04:40:36;;;;;;;5.72;2.08;;;;;;;20.53;100.00;100354.78;2617199;54;20201;-63
2022/06/21 04:43:14;;;;;;;3.38;1.98;;;;;;;19.80;100.00;100375.69;2618407;54;20142;-63
2022/06/21 04:45:49;;;;;;;0.63;0.60;;;;;;;19.53;100.00;100360.13;2617672;54;20141;-63
2022/06/21 04:48:33;;;;;;;1.83;1.73;;;;;;;19.54;100.00;100369.66;2617542;39;20521;-63
2022/06/21 04:51:14;;;;;;;1.30;1.20;;;;;;;19.43;100.00;100373.38;2616620;54;20153;-63
2022/06/21 04:53:52;;;;;;;2.65;2.45;;;;;;;19.29;100.00;100367.88;2616939;52;20659;-63
2022/06/21 04:56:31;;;;;;;8.82;2.03;;;;;;;19.03;100.00;100360.78;2617214;54;20141;-63
2022/06/21 04:59:03;;;;;;;1.33;1.13;;;;;;;18.82;100.00;100352.44;2617137;54;20149;-63
2022/06/21 05:01:37;;;;;;;0.90;0.90;;;;;;;19.66;100.00;100352.59;2616763;54;20153;-63
2022/06/21 05:04:13;;;;;;;2.60;2.00;;;;;;;19.84;100.00;100352.50;2616371;54;20146;-62
2022/06/21 05:06:47;;;;;;;4.68;2.83;;;;;;;19.93;100.00;100347.09;2616339;54;20662;-62
2022/06/21 05:09:20;;;;;;;2.55;2.35;;;;;;;20.23;100.00;100347.47;2616200;48;20141;-62
2022/06/21 05:11:57;;;;;;;1.65;1.55;;;;;;;20.42;100.00;100353.28;2616115;54;20210;-63
2022/06/21 05:14:31;;;;;;;3.08;2.03;;;;;;;20.04;100.00;100352.06;2616397;39;20563;-62
2022/06/21 05:17:01;;;;;;;0.63;0.63;;;;;;;20.25;100.00;100348.97;2616353;54;20149;-63
2022/06/21 05:19:35;;;;;;;1.08;1.00;;;;;;;20.38;100.00;100351.16;2617064;54;20684;-63
2022/06/21 05:22:15;;;;;;;3.15;2.72;;;;;;;20.20;100.00;100343.34;2617094;54;20216;-62
2022/06/21 05:24:46;;;;;;;1.98;1.85;;;;;;;20.12;100.00;100345.16;2617273;39;20563;-63
2022/06/21 05:27:23;;;;;;;2.90;1.60;;;;;;;20.30;100.00;100337.97;2617414;47;20149;-63
2022/06/21 05:29:58;;;;;;;5.10;3.88;;;;;;;20.31;100.00;100331.69;2617450;47;20149;-62
2022/06/21 05:32:33;;;;;;;2.78;2.58;;;;;;;20.71;100.00;100333.50;2616970;54;20142;-62
2022/06/21 05:35:14;;;;;;;1.30;1.20;;;;;;;20.94;100.00;100329.22;2616545;54;20141;-63
2022/06/21 05:37:54;;;;;;;0.10;0.10;;;;;;;21.68;100.00;100325.34;2616471;54;20141;-63
2022/06/21 05:40:31;;;;;;;0.57;0.57;;;;;;;21.83;100.00;100321.78;2616604;54;20197;-63
2022/06/21 05:43:02;;;;;;;1.10;1.00;;;;;;;21.63;100.00;100312.66;2616801;54;20141;-63
2022/06/21 05:45:37;;;;;;;3.05;2.75;;;;;;;21.88;100.00;100310.72;2616799;54;20141;-63
2022/06/21 05:48:16;;;;;;;1.38;1.30;;;;;;;21.79;100.00;100302.00;2616763;54;20145;-63
2022/06/21 05:50:46;;;;;;;2.53;2.38;;;;;;;21.81;100.00;100304.47;2616784;54;20683;-63
2022/06/21 05:53:26;;;;;;;2.28;0.93;;;;;;;21.92;100.00;100312.88;2616757;54;20157;-63
2022/06/21 05:55:57;;;;;;;0.20;0.20;;;;;;;22.31;100.00;100307.47;2617001;54;20185;-63
2022/06/21 05:58:32;;;;;;;2.15;1.55;;;;;;;22.07;100.00;100318.22;2616757;54;20156;-62
2022/06/21 06:01:09;;;;;;;1.23;1.13;;;;;;;21.87;100.00;100324.91;2617029;54;20180;-63
2022/06/21 06:03:44;;;;;;;0.82;0.82;;;;;;;21.66;100.00;100314.97;2618337;54;20141;-63
2022/06/21 06:06:19;;;;;;;1.52;1.50;;;;;;;21.61;100.00;100312.03;2616633;54;20191;-63
2022/06/21 06:08:55;;;;;;;0.73;0.73;;;;;;;22.26;100.00;100311.66;2616975;54;20229;-64
2022/06/21 06:11:57;;;;;;;0.40;0.40;;;;;;;22.43;100.00;100310.50;2617078;54;20141;-63
2022/06/21 06:14:21;;;;;;;1.30;1.20;;;;;;;22.37;100.00;100316.50;2617118;39;20559;-63
2022/06/21 06:16:56;;;;;;;0.73;0.60;;;;;;;22.63;100.00;100313.50;2616991;39;20567;-62
2022/06/21 06:19:34;;;;;;;1.05;0.93;;;;;;;23.05;100.00;100318.22;2616450;54;20148;-63
2022/06/21 06:22:20;;;;;;;2.58;1.70;;;;;;;22.89;100.00;100319.22;2616740;54;20195;-64
2022/06/21 06:24:59;;;;;;;0.45;0.45;;;;;;;23.01;100.00;100314.28;2616735;54;20690;-63
2022/06/21 06:27:36;;;;;;;1.17;0.70;;;;;;;23.07;100.00;100303.78;2616668;54;20672;-63
2022/06/21 06:30:09;;;;;;;4.05;3.40;;;;;;;22.59;100.00;100305.06;2616871;50;20141;-62
2022/06/21 06:32:44;;;;;;;0.40;0.40;;;;;;;23.04;100.00;100301.50;2616757;54;20675;-63
2022/06/21 06:35:23;;;;;;;1.45;0.90;;;;;;;23.08;100.00;100312.56;2616346;54;20141;-64
2022/06/21 06:37:54;;;;;;;3.38;1.33;;;;;;;23.12;100.00;100314.66;2617009;39;20690;-62
2022/06/21 06:40:32;;;;;;;1.50;1.40;;;;;;;23.08;100.00;100312.56;2616699;39;20699;-63
2022/06/21 06:43:06;;;;;;;1.90;1.15;;;;;;;23.18;100.00;100321.06;2616965;54;20141;-63
2022/06/21 06:45:39;;;;;;;1.67;1.33;;;;;;;22.70;100.00;100322.38;2616572;54;20148;-63
2022/06/21 06:48:15;;;;;;;0.25;0.25;;;;;;;22.99;100.00;100327.69;2616728;51;20233;-63
2022/06/21 06:50:51;;;;;;;0.50;0.50;;;;;;;23.32;100.00;100312.28;2616433;54;20156;-63
2022/06/21 06:53:29;;;;;;;1.08;1.00;;;;;;;23.34;100.00;100315.56;2616409;54;20149;-63
2022/06/21 06:56:04;;;;;;;1.50;1.40;;;;;;;23.02;100.00;100315.94;2617072;54;20149;-63
2022/06/21 06:58:40;;;;;;;1.63;1.52;;;;;;;23.14;100.00;100317.13;2618178;54;20149;-63
2022/06/21 07:01:15;;;;;;;3.58;2.65;;;;;;;23.39;100.00;100299.94;2617540;52;20149;-63
2022/06/21 07:03:50;;;;;;;1.23;1.13;;;;;;;23.67;100.00;100305.44;2617336;54;20175;-63
2022/06/21 07:06:23;;;;;;;2.40;1.13;;;;;;;23.81;100.00;100295.78;2616931;54;20148;-63
2022/06/21 07:09:00;;;;;;;2.50;1.83;;;;;;;24.12;100.00;100298.94;2616425;54;20148;-63
2022/06/21 07:11:48;;;;;;;3.17;2.80;;;;;;;24.39;100.00;100290.28;2616315;54;20141;-63
2022/06/21 07:14:23;;;;;;;1.05;0.82;;;;;;;24.46;100.00;100290.31;2616570;54;20148;-66
2022/06/21 07:16:57;;;;;;;0.70;0.65;;;;;;;24.54;100.00;100291.00;2616558;54;20141;-63
2022/06/21 07:19:27;;;;;;;2.33;1.52;;;;;;;24.52;100.00;100284.22;2616487;47;20141;-64
2022/06/21 07:21:59;;;;;;;8.50;3.30;;;;;;;24.23;100.00;100287.88;2616466;54;20147;-63
2022/06/21 07:24:29;;;;;;;1.65;1.33;;;;;;;24.53;100.00;100281.41;2616490;54;20669;-64
2022/06/21 07:27:11;;;;;;;3.00;1.83;;;;;;;24.67;100.00;100282.31;2616563;54;20150;-63
2022/06/21 07:29:58;;;;;;;1.15;1.05;;;;;;;25.08;100.00;100283.19;2616428;39;20408;-64
2022/06/21 07:32:33;;;;;;;0.93;0.63;;;;;;;25.39;100.00;100264.16;2616571;54;20142;-65
2022/06/21 07:35:07;;;;;;;2.65;0.68;;;;;;;25.20;100.00;100272.06;2616715;54;20141;-63
2022/06/21 07:37:43;;;;;;;4.10;1.13;;;;;;;25.47;100.00;100277.28;2616772;54;20146;-63
2022/06/21 07:40:19;;;;;;;0.85;0.80;;;;;;;25.70;100.00;100273.47;2616879;51;20201;-64
2022/06/21 09:56:45;;;;;;;0.77;0.70;;;;;;;30.10;56.81;100211.94;2611307;47;20245;-64
2022/06/21 09:59:23;;;;;;;2.08;1.48;;;;;;;30.36;55.38;100206.13;2617048;54;20233;-64
2022/06/21 10:02:01;;;;;;;0.70;0.70;;;;;;;30.41;56.59;100208.13;2616867;47;20678;-64
2022/06/21 10:04:40;;;;;;;1.25;1.15;;;;;;;30.42;56.13;100207.88;2616562;54;20265;-63
2022/06/21 10:07:22;;;;;;;0.43;0.43;;;;;;;30.69;55.28;100207.41;2616744;54;20149;-64
2022/06/21 10:10:09;;;;;;;0.17;0.17;;;;;;;30.80;56.09;100203.91;2616599;47;20142;-63
2022/06/21 10:12:53;;;;;;;1.60;1.50;;;;;;;31.17;54.47;100202.56;2616865;54;20141;-64
2022/06/21 10:15:36;;;;;;;0.00;0.00;;;;;;;31.02;53.27;100199.56;2617222;54;20142;-63
2022/06/21 10:18:42;;;;;;;0.20;0.20;;;;;;;31.17;53.79;100191.00;2616739;54;20148;-67
2022/06/21 10:21:33;;;;;;;0.35;0.35;;;;;;;30.89;54.29;100189.91;2616812;54;20751;-63
2022/06/21 10:24:27;;;;;;;1.17;1.02;;;;;;;31.22;53.25;100188.41;2616567;54;20690;-64
2022/06/21 10:27:17;;;;;;;1.45;1.45;;;;;;;31.40;54.11;100177.50;2616912;54;20851;-63
2022/06/21 10:30:22;;;;;;;0.43;0.43;;;;;;;31.70;53.64;100179.94;2616858;47;20154;-63
2022/06/21 10:33:07;;;;;;;0.38;0.38;;;;;;;31.58;52.23;100176.50;2616466;54;20142;-63
2022/06/21 10:35:54;;;;;;;1.25;1.15;;;;;;;31.37;49.63;100169.94;2616603;48;20141;-64
2022/06/21 10:38:58;;;;;;;0.98;0.98;;;;;;;31.05;48.01;100169.63;2616663;54;20157;-65
2022/06/21 10:41:41;;;;;;;1.38;1.35;;;;;;;31.16;49.63;100173.28;2616049;54;20149;-63
2022/06/21 10:44:39;;;;;;;4.05;2.20;;;;;;;31.16;49.48;100167.94;2616694;54;20156;-64
2022/06/21 10:47:24;;;;;;;0.15;0.15;;;;;;;31.45;50.81;100156.16;2616496;47;20685;-63
2022/06/21 10:50:19;;;;;;;0.88;0.88;;;;;;;31.69;50.42;100151.47;2616412;54;20181;-63
2022/06/21 10:53:24;;;;;;;1.95;0.88;;;;;;;31.89;50.17;100154.50;2616713;54;20213;-63
2022/06/21 10:58:59;;;;;;;0.60;0.60;;;;;;;31.40;50.85;100143.44;2616769;47;20142;-65
2022/06/21 11:01:32;;;;;;;0.05;0.00;;;;;;;31.71;49.90;100152.84;2616631;54;20149;-64
2022/06/21 11:04:29;;;;;;;0.43;0.43;;;;;;;31.71;47.44;100144.81;2616454;47;20634;-63
2022/06/21 11:07:05;;;;;;;4.30;2.80;;;;;;;31.60;46.57;100159.09;2616512;47;20166;-63
2022/06/21 11:09:43;;;;;;;1.92;1.83;;;;;;;31.31;47.45;100144.06;2616511;54;20149;-62
2022/06/21 11:15:09;;;;;;;1.10;0.88;;;;;;;31.50;46.55;100132.06;2616947;54;20141;-65
2022/06/21 11:17:51;;;;;;;5.22;1.20;;;;;;;31.67;45.78;100140.16;2616672;54;20149;-65
2022/06/21 11:20:34;;;;;;;3.55;1.83;;;;;;;31.49;44.63;100136.66;2616229;54;20149;-63
2022/06/21 11:23:17;;;;;;;8.57;2.05;;;;;;;31.41;46.23;100131.69;2616357;54;20141;-64
2022/06/21 11:25:53;;;;;;;1.90;1.77;;;;;;;31.45;46.54;100126.63;2616246;54;20142;-63
2022/06/21 11:28:39;;;;;;;0.70;0.70;;;;;;;31.74;45.77;100138.94;2616448;54;20660;-63
2022/06/21 11:31:17;;;;;;;1.42;1.27;;;;;;;31.54;45.37;100127.88;2616326;54;20141;-63
2022/06/21 11:34:00;;;;;;;2.85;1.20;;;;;;;31.72;46.39;100124.16;2616730;54;20141;-64
2022/06/21 11:36:45;;;;;;;6.57;2.80;;;;;;;31.59;45.52;100125.28;2616336;39;20559;-63
2022/06/21 11:39:30;;;;;;;1.63;1.50;;;;;;;31.83;46.08;100120.56;2616259;54;20670;-64
2022/06/21 11:42:20;;;;;;;1.60;1.35;;;;;;;31.69;45.77;100125.47;2616337;54;20141;-63
2022/06/21 11:45:16;;;;;;;2.15;1.95;;;;;;;32.16;46.14;100120.56;2616436;54;20149;-64
2022/06/21 11:48:31;;;;;;;5.97;2.78;;;;;;;31.83;44.89;100101.78;2616240;54;20149;-63
2022/06/21 11:51:20;;;;;;;1.40;1.30;;;;;;;32.04;45.55;100107.22;2615944;54;20164;-65
2022/06/21 11:53:59;;;;;;;1.50;1.40;;;;;;;31.65;46.42;100110.91;2616183;47;20166;-63
2022/06/21 11:56:41;;;;;;;2.50;1.08;;;;;;;32.24;45.31;100105.88;2616111;54;20237;-63
2022/06/21 11:59:21;;;;;;;0.50;0.50;;;;;;;32.54;44.55;100092.81;2616091;54;20226;-64
2022/06/21 12:01:59;;;;;;;1.92;1.08;;;;;;;32.81;44.12;100096.41;2616468;47;20141;-65
2022/06/21 12:04:38;;;;;;;0.63;0.63;;;;;;;33.42;42.54;100080.09;2616537;54;20142;-64
2022/06/21 12:07:13;;;;;;;2.28;1.65;;;;;;;34.22;40.68;100090.63;2616151;54;20143;-65
2022/06/21 12:09:55;;;;;;;0.63;0.63;;;;;;;33.31;41.75;100089.91;2616056;54;20141;-65
2022/06/21 12:12:46;;;;;;;1.58;1.48;;;;;;;32.87;42.92;100090.03;2616143;47;20149;-64
2022/06/21 12:15:40;;;;;;;1.20;1.17;;;;;;;32.53;43.35;100083.16;2616309;54;20735;-63
2022/06/21 12:18:17;;;;;;;0.40;0.40;;;;;;;32.61;43.70;100085.44;2615844;54;20142;-64
2022/06/21 12:20:52;;;;;;;0.32;0.32;;;;;;;33.64;42.08;100087.00;2616042;54;20142;-64
2022/06/21 12:23:28;;;;;;;0.55;0.52;;;;;;;34.57;38.91;100082.69;2616106;54;20133;-66
2022/06/21 12:26:01;;;;;;;1.88;1.40;;;;;;;34.15;38.40;100076.56;2616007;54;20141;-64
2022/06/21 12:28:36;;;;;;;0.65;0.65;;;;;;;34.36;37.63;100064.81;2616077;47;20142;-64
2022/06/21 12:31:24;;;;;;;0.88;0.88;;;;;;;35.02;36.42;100067.72;2616208;46;20179;-64
2022/06/21 12:34:02;;;;;;;2.80;2.15;;;;;;;34.19;37.26;100080.34;2615966;54;20166;-64
2022/06/21 12:36:43;;;;;;;1.23;1.20;;;;;;;34.31;37.19;100048.63;2616112;54;20141;-63
2022/06/21 12:39:21;;;;;;;0.88;0.88;;;;;;;34.22;37.29;100053.72;2616014;54;20148;-64
2022/06/21 12:42:03;;;;;;;1.95;0.95;;;;;;;35.25;35.49;100042.94;2615840;54;20663;-63
2022/06/21 12:44:53;;;;;;;1.48;1.30;;;;;;;35.20;35.23;100043.72;2616017;54;20142;-64
2022/06/21 12:47:35;;;;;;;1.40;1.30;;;;;;;34.78;36.54;100047.72;2616157;54;20145;-63
2022/06/21 12:50:37;;;;;;;1.38;1.27;;;;;;;35.20;35.82;100049.13;2616794;54;20149;-63
2022/06/21 12:53:39;;;;;;;0.65;0.40;;;;;;;35.90;35.12;100039.34;2616754;54;20145;-64
2022/06/21 12:56:25;;;;;;;1.55;1.45;;;;;;;35.02;35.58;100044.25;2616570;39;20476;-64
2022/06/21 12:59:25;;;;;;;1.10;1.08;;;;;;;35.38;35.40;100034.28;2616878;54;20142;-64
2022/06/21 13:02:23;;;;;;;1.58;1.48;;;;;;;34.66;36.56;100032.59;2616752;54;20141;-64
2022/06/21 13:05:13;;;;;;;1.58;1.48;;;;;;;34.34;36.35;100040.03;2616831;54;20671;-64
2022/06/21 13:08:17;;;;;;;2.45;2.25;;;;;;;33.95;37.37;100041.41;2616579;47;20675;-63
2022/06/21 13:10:55;;;;;;;1.23;0.73;;;;;;;34.23;37.11;100033.78;2616782;54;20141;-64
2022/06/21 13:13:48;;;;;;;0.98;0.98;;;;;;;34.42;37.61;100017.16;2616771;54;20157;-64
2022/06/21 13:16:35;;;;;;;1.40;0.98;;;;;;;33.55;38.13;100028.50;2616854;54;20148;-65
2022/06/21 13:19:30;;;;;;;0.60;0.60;;;;;;;33.66;39.79;100020.25;2616692;47;20142;-65
2022/06/21 13:22:16;;;;;;;6.18;1.63;;;;;;;34.67;37.41;100012.66;2616794;47;20247;-64
2022/06/21 13:24:58;;;;;;;3.05;1.95;;;;;;;34.19;36.26;100016.53;2616778;54;20142;-65
2022/06/21 13:27:40;;;;;;;1.30;1.17;;;;;;;34.44;36.05;100015.81;2616871;54;20141;-63
2022/06/21 13:30:45;;;;;;;1.60;1.50;;;;;;;34.50;36.32;100028.22;2616920;54;20141;-64
2022/06/21 13:33:21;;;;;;;2.20;2.08;;;;;;;34.86;35.58;100023.75;2616772;54;20164;-63
2022/06/21 13:36:03;;;;;;;2.70;2.50;;;;;;;34.40;36.60;100012.00;2616819;54;20160;-65
2022/06/21 13:38:43;;;;;;;3.53;1.33;;;;;;;34.37;35.26;100007.16;2616800;47;20140;-64
2022/06/21 13:44:13;;;;;;;1.88;0.95;;;;;;;34.90;34.00;99994.34;2616642;54;20148;-66
2022/06/21 13:46:48;;;;;;;1.33;1.23;;;;;;;34.56;35.00;100010.16;2616825;47;21041;-63
2022/06/21 13:49:24;;;;;;;3.92;1.90;;;;;;;34.37;35.16;100001.78;2616539;54;20141;-64
2022/06/21 13:52:02;;;;;;;2.85;2.50;;;;;;;34.28;35.96;100030.28;2616617;50;20141;-63
2022/06/21 13:54:38;;;;;;;1.27;1.25;;;;;;;34.59;35.48;100031.19;2616642;54;20670;-63
2022/06/21 13:57:16;;;;;;;1.58;1.42;;;;;;;34.43;34.87;100016.88;2616520;47;20141;-64
2022/06/21 13:59:50;;;;;;;1.55;1.15;;;;;;;34.36;34.39;100016.31;2616222;54;20142;-63
2022/06/21 14:02:33;;;;;;;1.95;1.55;;;;;;;34.60;33.10;100012.06;2616697;54;20141;-65
2022/06/21 14:05:13;;;;;;;1.85;1.75;;;;;;;34.42;33.27;100004.50;2617133;39;20201;-64
2022/06/21 14:07:52;;;;;;;1.95;0.82;;;;;;;34.67;34.87;100007.25;2616404;54;20134;-65
2022/06/21 14:10:27;;;;;;;1.55;1.45;;;;;;;34.51;32.88;100013.66;2616951;39;20584;-64
2022/06/21 14:13:05;;;;;;;0.88;0.88;;;;;;;34.40;34.59;100012.00;2616592;47;20145;-63
2022/06/21 14:15:42;;;;;;;2.00;1.58;;;;;;;34.41;34.11;100013.66;2616726;54;20141;-63
2022/06/21 14:18:21;;;;;;;1.05;1.05;;;;;;;34.52;33.55;100012.59;2616477;54;20174;-64
2022/06/21 14:20:58;;;;;;;0.90;0.90;;;;;;;34.56;34.11;100007.47;2616457;54;20149;-63
2022/06/21 14:23:36;;;;;;;4.53;1.65;;;;;;;34.52;34.87;100004.50;2616549;54;20666;-64
2022/06/21 14:26:14;;;;;;;7.00;1.38;;;;;;;34.14;35.04;100008.41;2616337;54;20141;-63
2022/06/21 14:28:50;;;;;;;4.22;1.30;;;;;;;34.54;34.25;99991.59;2616623;54;20390;-63
2022/06/21 14:31:27;;;;;;;3.25;1.30;;;;;;;34.84;33.94;99990.03;2616654;54;20148;-64
2022/06/21 14:34:04;;;;;;;2.70;1.88;;;;;;;34.15;34.32;99982.28;2617448;31;20639;-63
2022/06/21 14:36:42;;;;;;;0.80;0.80;;;;;;;34.44;35.89;99986.16;2616538;54;20141;-65